sensor_id;sensor_type;location;lat;lon;timestamp;P1;durP1;ratioP1;P2;durP2;ratioP2
37777;SDS011;23615;51.506;7.678;2022-12-18T00:00:46;5.38;;;4.32;;
37777;SDS011;23615;51.506;7.678;2022-12-18T00:03:14;4.00;;;3.20;;
37777;SDS011;23615;51.506;7.678;2022-12-18T00:05:46;3.13;;;2.83;;
37777;SDS011;23615;51.506;7.678;2022-12-18T00:08:12;2.97;;;1.80;;
37777;SDS011;23615;51.506;7.678;2022-12-18T00:10:37;2.28;;;1.63;;
37777;SDS011;23615;51.506;7.678;2022-12-18T00:13:03;2.43;;;1.30;;
37777;SDS011;23615;51.506;7.678;2022-12-18T00:15:28;1.50;;;0.97;;
37777;SDS011;23615;51.506;7.678;2022-12-18T00:17:53;2.50;;;1.37;;
37777;SDS011;23615;51.506;7.678;2022-12-18T00:20:18;2.77;;;1.30;;
37777;SDS011;23615;51.506;7.678;2022-12-18T00:22:50;1.80;;;1.13;;
37777;SDS011;23615;51.506;7.678;2022-12-18T00:25:16;1.77;;;1.33;;
37777;SDS011;23615;51.506;7.678;2022-12-18T00:27:41;2.10;;;1.00;;
37777;SDS011;23615;51.506;7.678;2022-12-18T00:30:06;1.57;;;1.27;;
37777;SDS011;23615;51.506;7.678;2022-12-18T00:32:32;2.08;;;1.10;;
37777;SDS011;23615;51.506;7.678;2022-12-18T00:34:57;2.30;;;1.30;;
37777;SDS011;23615;51.506;7.678;2022-12-18T00:37:22;1.97;;;1.00;;
37777;SDS011;23615;51.506;7.678;2022-12-18T00:39:48;1.70;;;1.27;;
37777;SDS011;23615;51.506;7.678;2022-12-18T00:42:14;1.45;;;1.10;;
37777;SDS011;23615;51.506;7.678;2022-12-18T00:44:58;1.27;;;0.85;;
37777;SDS011;23615;51.506;7.678;2022-12-18T00:47:23;1.63;;;1.30;;
37777;SDS011;23615;51.506;7.678;2022-12-18T00:49:48;2.23;;;1.20;;
37777;SDS011;23615;51.506;7.678;2022-12-18T00:52:14;1.50;;;1.13;;
37777;SDS011;23615;51.506;7.678;2022-12-18T00:54:39;1.63;;;1.50;;
37777;SDS011;23615;51.506;7.678;2022-12-18T00:57:04;1.30;;;1.10;;
37777;SDS011;23615;51.506;7.678;2022-12-18T00:59:29;1.20;;;1.10;;
37777;SDS011;23615;51.506;7.678;2022-12-18T01:01:55;1.87;;;1.17;;
37777;SDS011;23615;51.506;7.678;2022-12-18T01:04:20;3.23;;;1.60;;
37777;SDS011;23615;51.506;7.678;2022-12-18T01:06:46;1.97;;;1.30;;
37777;SDS011;23615;51.506;7.678;2022-12-18T01:09:11;3.80;;;1.70;;
37777;SDS011;23615;51.506;7.678;2022-12-18T01:11:36;1.67;;;1.55;;
37777;SDS011;23615;51.506;7.678;2022-12-18T01:14:02;2.73;;;1.60;;
37777;SDS011;23615;51.506;7.678;2022-12-18T01:16:27;2.60;;;1.90;;
37777;SDS011;23615;51.506;7.678;2022-12-18T01:18:53;2.30;;;1.50;;
37777;SDS011;23615;51.506;7.678;2022-12-18T01:21:20;1.60;;;1.30;;
37777;SDS011;23615;51.506;7.678;2022-12-18T01:23:46;3.88;;;2.78;;
37777;SDS011;23615;51.506;7.678;2022-12-18T01:26:13;3.75;;;2.65;;
37777;SDS011;23615;51.506;7.678;2022-12-18T01:28:40;3.60;;;2.55;;
37777;SDS011;23615;51.506;7.678;2022-12-18T01:31:10;2.85;;;2.42;;
37777;SDS011;23615;51.506;7.678;2022-12-18T01:33:36;3.08;;;2.30;;
37777;SDS011;23615;51.506;7.678;2022-12-18T01:36:01;3.47;;;2.50;;
37777;SDS011;23615;51.506;7.678;2022-12-18T01:38:28;3.83;;;2.72;;
37777;SDS011;23615;51.506;7.678;2022-12-18T01:40:57;3.40;;;2.40;;
37777;SDS011;23615;51.506;7.678;2022-12-18T01:46:15;3.65;;;2.97;;
37777;SDS011;23615;51.506;7.678;2022-12-18T01:48:41;3.78;;;3.38;;
37777;SDS011;23615;51.506;7.678;2022-12-18T01:51:09;4.00;;;3.38;;
37777;SDS011;23615;51.506;7.678;2022-12-18T01:53:35;3.67;;;2.88;;
37777;SDS011;23615;51.506;7.678;2022-12-18T01:56:02;3.33;;;2.28;;
37777;SDS011;23615;51.506;7.678;2022-12-18T02:01:25;3.23;;;2.30;;
37777;SDS011;23615;51.506;7.678;2022-12-18T02:03:51;2.50;;;2.05;;
37777;SDS011;23615;51.506;7.678;2022-12-18T02:14:36;2.33;;;1.80;;
37777;SDS011;23615;51.506;7.678;2022-12-18T02:17:07;2.28;;;1.77;;
37777;SDS011;23615;51.506;7.678;2022-12-18T02:22:40;2.83;;;1.73;;
37777;SDS011;23615;51.506;7.678;2022-12-18T02:28:13;2.20;;;1.55;;
37777;SDS011;23615;51.506;7.678;2022-12-18T02:30:42;2.30;;;1.80;;
37777;SDS011;23615;51.506;7.678;2022-12-18T02:33:09;1.30;;;1.10;;
37777;SDS011;23615;51.506;7.678;2022-12-18T02:35:36;2.20;;;1.67;;
37777;SDS011;23615;51.506;7.678;2022-12-18T02:38:03;2.08;;;1.58;;
37777;SDS011;23615;51.506;7.678;2022-12-18T02:40:29;2.63;;;1.40;;
37777;SDS011;23615;51.506;7.678;2022-12-18T02:42:55;2.55;;;1.27;;
37777;SDS011;23615;51.506;7.678;2022-12-18T02:45:27;2.88;;;1.65;;
37777;SDS011;23615;51.506;7.678;2022-12-18T02:47:53;3.03;;;1.70;;
37777;SDS011;23615;51.506;7.678;2022-12-18T02:50:21;2.53;;;1.53;;
37777;SDS011;23615;51.506;7.678;2022-12-18T02:53:00;3.72;;;1.75;;
37777;SDS011;23615;51.506;7.678;2022-12-18T03:01:04;2.25;;;1.33;;
37777;SDS011;23615;51.506;7.678;2022-12-18T03:03:38;2.65;;;1.50;;
37777;SDS011;23615;51.506;7.678;2022-12-18T03:06:10;1.80;;;1.40;;
37777;SDS011;23615;51.506;7.678;2022-12-18T03:08:43;1.88;;;1.33;;
37777;SDS011;23615;51.506;7.678;2022-12-18T03:11:13;2.47;;;1.70;;
37777;SDS011;23615;51.506;7.678;2022-12-18T03:13:46;2.53;;;1.70;;
37777;SDS011;23615;51.506;7.678;2022-12-18T03:16:18;2.53;;;1.20;;
37777;SDS011;23615;51.506;7.678;2022-12-18T03:18:51;1.65;;;1.33;;
37777;SDS011;23615;51.506;7.678;2022-12-18T03:21:21;1.67;;;1.40;;
37777;SDS011;23615;51.506;7.678;2022-12-18T03:23:51;2.25;;;1.10;;
37777;SDS011;23615;51.506;7.678;2022-12-18T03:26:19;1.15;;;0.98;;
37777;SDS011;23615;51.506;7.678;2022-12-18T03:28:51;3.08;;;1.10;;
37777;SDS011;23615;51.506;7.678;2022-12-18T03:31:20;2.20;;;1.30;;
37777;SDS011;23615;51.506;7.678;2022-12-18T03:33:51;3.00;;;1.75;;
37777;SDS011;23615;51.506;7.678;2022-12-18T03:36:19;2.63;;;1.30;;
37777;SDS011;23615;51.506;7.678;2022-12-18T03:38:44;1.20;;;1.03;;
37777;SDS011;23615;51.506;7.678;2022-12-18T03:41:15;1.43;;;1.00;;
37777;SDS011;23615;51.506;7.678;2022-12-18T03:43:49;2.47;;;1.40;;
37777;SDS011;23615;51.506;7.678;2022-12-18T03:46:30;1.60;;;1.30;;
37777;SDS011;23615;51.506;7.678;2022-12-18T03:49:10;1.80;;;1.38;;
37777;SDS011;23615;51.506;7.678;2022-12-18T03:51:44;2.07;;;1.50;;
37777;SDS011;23615;51.506;7.678;2022-12-18T03:54:17;3.33;;;1.53;;
37777;SDS011;23615;51.506;7.678;2022-12-18T03:56:46;1.98;;;1.35;;
37777;SDS011;23615;51.506;7.678;2022-12-18T03:59:19;2.38;;;1.60;;
37777;SDS011;23615;51.506;7.678;2022-12-18T04:01:47;2.72;;;1.95;;
37777;SDS011;23615;51.506;7.678;2022-12-18T04:04:16;2.23;;;1.60;;
37777;SDS011;23615;51.506;7.678;2022-12-18T04:06:43;2.15;;;1.55;;
37777;SDS011;23615;51.506;7.678;2022-12-18T04:09:11;2.42;;;1.70;;
37777;SDS011;23615;51.506;7.678;2022-12-18T04:11:37;1.73;;;1.50;;
37777;SDS011;23615;51.506;7.678;2022-12-18T04:14:02;2.03;;;1.40;;
37777;SDS011;23615;51.506;7.678;2022-12-18T04:16:27;2.70;;;1.33;;
37777;SDS011;23615;51.506;7.678;2022-12-18T04:18:53;3.00;;;1.45;;
37777;SDS011;23615;51.506;7.678;2022-12-18T04:21:19;2.00;;;1.20;;
37777;SDS011;23615;51.506;7.678;2022-12-18T04:23:45;2.95;;;1.52;;
37777;SDS011;23615;51.506;7.678;2022-12-18T04:26:10;2.27;;;1.40;;
37777;SDS011;23615;51.506;7.678;2022-12-18T04:28:35;2.33;;;1.63;;
37777;SDS011;23615;51.506;7.678;2022-12-18T04:31:01;1.40;;;1.13;;
37777;SDS011;23615;51.506;7.678;2022-12-18T04:33:26;3.10;;;1.50;;
37777;SDS011;23615;51.506;7.678;2022-12-18T04:35:51;2.43;;;1.30;;
37777;SDS011;23615;51.506;7.678;2022-12-18T04:38:16;2.90;;;1.90;;
37777;SDS011;23615;51.506;7.678;2022-12-18T04:40:42;2.47;;;1.42;;
37777;SDS011;23615;51.506;7.678;2022-12-18T04:43:07;1.53;;;1.13;;
37777;SDS011;23615;51.506;7.678;2022-12-18T04:45:33;1.97;;;1.50;;
37777;SDS011;23615;51.506;7.678;2022-12-18T04:47:59;2.20;;;1.50;;
37777;SDS011;23615;51.506;7.678;2022-12-18T04:50:27;1.83;;;1.07;;
37777;SDS011;23615;51.506;7.678;2022-12-18T04:52:53;2.30;;;1.35;;
37777;SDS011;23615;51.506;7.678;2022-12-18T04:55:18;1.83;;;0.97;;
37777;SDS011;23615;51.506;7.678;2022-12-18T04:57:44;1.80;;;1.00;;
37777;SDS011;23615;51.506;7.678;2022-12-18T05:00:09;2.60;;;1.45;;
37777;SDS011;23615;51.506;7.678;2022-12-18T05:02:35;1.85;;;1.20;;
37777;SDS011;23615;51.506;7.678;2022-12-18T05:05:00;1.53;;;1.10;;
37777;SDS011;23615;51.506;7.678;2022-12-18T05:07:26;2.47;;;1.43;;
37777;SDS011;23615;51.506;7.678;2022-12-18T05:09:51;2.07;;;1.20;;
37777;SDS011;23615;51.506;7.678;2022-12-18T05:12:16;1.53;;;1.17;;
37777;SDS011;23615;51.506;7.678;2022-12-18T05:14:41;1.60;;;1.30;;
37777;SDS011;23615;51.506;7.678;2022-12-18T05:17:07;2.27;;;1.30;;
37777;SDS011;23615;51.506;7.678;2022-12-18T05:19:32;2.60;;;1.40;;
37777;SDS011;23615;51.506;7.678;2022-12-18T05:21:57;1.60;;;1.13;;
37777;SDS011;23615;51.506;7.678;2022-12-18T05:24:23;2.50;;;1.30;;
37777;SDS011;23615;51.506;7.678;2022-12-18T05:26:48;1.60;;;1.20;;
37777;SDS011;23615;51.506;7.678;2022-12-18T05:29:13;2.23;;;1.27;;
37777;SDS011;23615;51.506;7.678;2022-12-18T05:31:39;2.17;;;1.20;;
37777;SDS011;23615;51.506;7.678;2022-12-18T05:34:07;1.90;;;1.57;;
37777;SDS011;23615;51.506;7.678;2022-12-18T05:36:33;2.22;;;1.30;;
37777;SDS011;23615;51.506;7.678;2022-12-18T05:38:58;2.27;;;1.47;;
37777;SDS011;23615;51.506;7.678;2022-12-18T05:41:25;2.90;;;1.57;;
37777;SDS011;23615;51.506;7.678;2022-12-18T05:43:50;2.60;;;1.60;;
37777;SDS011;23615;51.506;7.678;2022-12-18T05:46:16;1.77;;;1.20;;
37777;SDS011;23615;51.506;7.678;2022-12-18T05:48:43;1.77;;;1.10;;
37777;SDS011;23615;51.506;7.678;2022-12-18T05:51:13;2.03;;;1.27;;
37777;SDS011;23615;51.506;7.678;2022-12-18T05:53:40;2.85;;;1.63;;
37777;SDS011;23615;51.506;7.678;2022-12-18T05:56:08;1.90;;;1.30;;
37777;SDS011;23615;51.506;7.678;2022-12-18T05:58:35;2.80;;;1.52;;
37777;SDS011;23615;51.506;7.678;2022-12-18T06:03:34;2.78;;;1.73;;
37777;SDS011;23615;51.506;7.678;2022-12-18T06:05:59;2.27;;;1.73;;
37777;SDS011;23615;51.506;7.678;2022-12-18T06:08:25;2.93;;;1.77;;
37777;SDS011;23615;51.506;7.678;2022-12-18T06:10:50;2.83;;;1.52;;
37777;SDS011;23615;51.506;7.678;2022-12-18T06:13:17;1.92;;;1.55;;
37777;SDS011;23615;51.506;7.678;2022-12-18T06:15:43;2.33;;;1.63;;
37777;SDS011;23615;51.506;7.678;2022-12-18T06:18:08;2.35;;;1.80;;
37777;SDS011;23615;51.506;7.678;2022-12-18T06:20:34;3.03;;;2.00;;
37777;SDS011;23615;51.506;7.678;2022-12-18T06:23:01;2.20;;;1.70;;
37777;SDS011;23615;51.506;7.678;2022-12-18T06:25:26;2.70;;;1.40;;
37777;SDS011;23615;51.506;7.678;2022-12-18T06:27:52;3.03;;;1.77;;
37777;SDS011;23615;51.506;7.678;2022-12-18T06:30:17;1.30;;;1.10;;
37777;SDS011;23615;51.506;7.678;2022-12-18T06:32:43;2.33;;;1.50;;
37777;SDS011;23615;51.506;7.678;2022-12-18T06:35:08;1.80;;;1.43;;
37777;SDS011;23615;51.506;7.678;2022-12-18T06:37:33;2.20;;;1.60;;
37777;SDS011;23615;51.506;7.678;2022-12-18T06:39:59;1.63;;;1.30;;
37777;SDS011;23615;51.506;7.678;2022-12-18T06:42:25;1.85;;;1.42;;
37777;SDS011;23615;51.506;7.678;2022-12-18T06:44:51;2.63;;;1.73;;
37777;SDS011;23615;51.506;7.678;2022-12-18T06:47:16;2.57;;;1.50;;
37777;SDS011;23615;51.506;7.678;2022-12-18T06:49:42;3.30;;;1.92;;
37777;SDS011;23615;51.506;7.678;2022-12-18T06:52:08;2.38;;;1.40;;
37777;SDS011;23615;51.506;7.678;2022-12-18T06:54:33;1.83;;;1.33;;
37777;SDS011;23615;51.506;7.678;2022-12-18T06:56:59;3.40;;;1.70;;
37777;SDS011;23615;51.506;7.678;2022-12-18T06:59:24;3.03;;;1.60;;
37777;SDS011;23615;51.506;7.678;2022-12-18T07:01:49;2.10;;;1.30;;
37777;SDS011;23615;51.506;7.678;2022-12-18T07:04:14;2.33;;;1.47;;
37777;SDS011;23615;51.506;7.678;2022-12-18T07:06:40;2.93;;;1.77;;
37777;SDS011;23615;51.506;7.678;2022-12-18T07:09:05;3.20;;;1.25;;
37777;SDS011;23615;51.506;7.678;2022-12-18T07:11:32;1.92;;;1.58;;
37777;SDS011;23615;51.506;7.678;2022-12-18T07:13:58;3.08;;;1.75;;
37777;SDS011;23615;51.506;7.678;2022-12-18T07:16:26;3.33;;;1.77;;
37777;SDS011;23615;51.506;7.678;2022-12-18T07:18:54;2.75;;;1.90;;
37777;SDS011;23615;51.506;7.678;2022-12-18T07:21:20;1.73;;;1.23;;
37777;SDS011;23615;51.506;7.678;2022-12-18T07:23:46;2.75;;;1.65;;
37777;SDS011;23615;51.506;7.678;2022-12-18T07:26:13;2.27;;;1.60;;
37777;SDS011;23615;51.506;7.678;2022-12-18T07:28:40;2.83;;;1.70;;
37777;SDS011;23615;51.506;7.678;2022-12-18T07:31:07;3.05;;;1.75;;
37777;SDS011;23615;51.506;7.678;2022-12-18T07:33:34;2.33;;;1.63;;
37777;SDS011;23615;51.506;7.678;2022-12-18T07:36:01;1.87;;;1.20;;
37777;SDS011;23615;51.506;7.678;2022-12-18T07:38:28;2.53;;;1.30;;
37777;SDS011;23615;51.506;7.678;2022-12-18T07:40:53;2.53;;;1.73;;
37777;SDS011;23615;51.506;7.678;2022-12-18T07:43:19;1.67;;;1.33;;
37777;SDS011;23615;51.506;7.678;2022-12-18T07:45:44;2.43;;;1.50;;
37777;SDS011;23615;51.506;7.678;2022-12-18T07:48:09;2.40;;;1.70;;
37777;SDS011;23615;51.506;7.678;2022-12-18T07:50:35;2.00;;;1.43;;
37777;SDS011;23615;51.506;7.678;2022-12-18T07:53:00;3.43;;;1.80;;
37777;SDS011;23615;51.506;7.678;2022-12-18T07:55:28;3.15;;;1.70;;
37777;SDS011;23615;51.506;7.678;2022-12-18T07:57:55;2.88;;;1.83;;
37777;SDS011;23615;51.506;7.678;2022-12-18T08:00:20;2.57;;;1.50;;
37777;SDS011;23615;51.506;7.678;2022-12-18T08:02:46;2.80;;;1.75;;
37777;SDS011;23615;51.506;7.678;2022-12-18T08:05:11;2.80;;;1.63;;
37777;SDS011;23615;51.506;7.678;2022-12-18T08:07:37;3.40;;;1.75;;
37777;SDS011;23615;51.506;7.678;2022-12-18T08:10:02;2.70;;;1.70;;
37777;SDS011;23615;51.506;7.678;2022-12-18T08:12:27;1.93;;;1.70;;
37777;SDS011;23615;51.506;7.678;2022-12-18T08:14:53;2.97;;;1.47;;
37777;SDS011;23615;51.506;7.678;2022-12-18T08:17:19;2.20;;;1.30;;
37777;SDS011;23615;51.506;7.678;2022-12-18T08:19:44;2.25;;;1.55;;
37777;SDS011;23615;51.506;7.678;2022-12-18T08:22:10;3.20;;;1.73;;
37777;SDS011;23615;51.506;7.678;2022-12-18T08:24:35;2.40;;;1.57;;
37777;SDS011;23615;51.506;7.678;2022-12-18T08:27:00;4.03;;;1.83;;
37777;SDS011;23615;51.506;7.678;2022-12-18T08:29:25;2.33;;;1.63;;
37777;SDS011;23615;51.506;7.678;2022-12-18T08:31:51;3.00;;;1.70;;
37777;SDS011;23615;51.506;7.678;2022-12-18T08:34:16;2.07;;;1.83;;
37777;SDS011;23615;51.506;7.678;2022-12-18T08:36:41;2.87;;;1.90;;
37777;SDS011;23615;51.506;7.678;2022-12-18T08:39:06;3.87;;;1.90;;
37777;SDS011;23615;51.506;7.678;2022-12-18T08:41:32;2.23;;;1.43;;
37777;SDS011;23615;51.506;7.678;2022-12-18T08:43:57;1.83;;;1.30;;
37777;SDS011;23615;51.506;7.678;2022-12-18T08:46:41;2.25;;;1.50;;
37777;SDS011;23615;51.506;7.678;2022-12-18T08:49:08;2.35;;;1.42;;
37777;SDS011;23615;51.506;7.678;2022-12-18T08:51:34;3.03;;;1.80;;
37777;SDS011;23615;51.506;7.678;2022-12-18T08:54:00;2.90;;;1.70;;
37777;SDS011;23615;51.506;7.678;2022-12-18T08:56:26;3.27;;;1.50;;
37777;SDS011;23615;51.506;7.678;2022-12-18T08:58:52;3.33;;;1.73;;
37777;SDS011;23615;51.506;7.678;2022-12-18T09:01:18;2.10;;;1.73;;
37777;SDS011;23615;51.506;7.678;2022-12-18T09:03:44;2.35;;;1.65;;
37777;SDS011;23615;51.506;7.678;2022-12-18T09:06:13;1.92;;;1.30;;
37777;SDS011;23615;51.506;7.678;2022-12-18T09:08:40;3.03;;;1.67;;
37777;SDS011;23615;51.506;7.678;2022-12-18T09:11:09;2.30;;;1.60;;
37777;SDS011;23615;51.506;7.678;2022-12-18T09:13:45;2.17;;;1.30;;
37777;SDS011;23615;51.506;7.678;2022-12-18T09:16:10;1.63;;;1.30;;
37777;SDS011;23615;51.506;7.678;2022-12-18T09:18:35;2.60;;;1.37;;
37777;SDS011;23615;51.506;7.678;2022-12-18T09:21:07;2.23;;;1.43;;
37777;SDS011;23615;51.506;7.678;2022-12-18T09:23:33;2.23;;;1.40;;
37777;SDS011;23615;51.506;7.678;2022-12-18T09:25:59;2.00;;;1.20;;
37777;SDS011;23615;51.506;7.678;2022-12-18T09:28:25;2.40;;;1.30;;
37777;SDS011;23615;51.506;7.678;2022-12-18T09:30:52;2.20;;;1.40;;
37777;SDS011;23615;51.506;7.678;2022-12-18T09:33:17;2.00;;;1.30;;
37777;SDS011;23615;51.506;7.678;2022-12-18T09:35:43;2.63;;;1.50;;
37777;SDS011;23615;51.506;7.678;2022-12-18T09:38:11;1.88;;;1.33;;
37777;SDS011;23615;51.506;7.678;2022-12-18T09:41:39;2.97;;;1.47;;
37777;SDS011;23615;51.506;7.678;2022-12-18T09:43:55;1.90;;;1.20;;
37777;SDS011;23615;51.506;7.678;2022-12-18T09:46:31;2.90;;;1.40;;
37777;SDS011;23615;51.506;7.678;2022-12-18T09:49:01;2.00;;;1.10;;
37777;SDS011;23615;51.506;7.678;2022-12-18T09:51:50;1.52;;;1.05;;
37777;SDS011;23615;51.506;7.678;2022-12-18T09:54:25;1.90;;;1.17;;
37777;SDS011;23615;51.506;7.678;2022-12-18T09:56:57;1.75;;;1.15;;
37777;SDS011;23615;51.506;7.678;2022-12-18T09:59:24;1.80;;;1.23;;
37777;SDS011;23615;51.506;7.678;2022-12-18T10:01:54;1.92;;;1.42;;
37777;SDS011;23615;51.506;7.678;2022-12-18T10:04:20;2.33;;;1.33;;
37777;SDS011;23615;51.506;7.678;2022-12-18T10:06:55;2.40;;;1.20;;
37777;SDS011;23615;51.506;7.678;2022-12-18T10:09:33;2.45;;;1.40;;
37777;SDS011;23615;51.506;7.678;2022-12-18T10:12:16;2.30;;;1.27;;
37777;SDS011;23615;51.506;7.678;2022-12-18T10:20:24;1.42;;;1.02;;
37777;SDS011;23615;51.506;7.678;2022-12-18T10:28:14;1.65;;;0.93;;
37777;SDS011;23615;51.506;7.678;2022-12-18T10:30:42;1.30;;;0.90;;
37777;SDS011;23615;51.506;7.678;2022-12-18T10:33:12;1.27;;;0.87;;
37777;SDS011;23615;51.506;7.678;2022-12-18T10:35:41;1.80;;;1.10;;
37777;SDS011;23615;51.506;7.678;2022-12-18T10:40:55;2.10;;;0.88;;
37777;SDS011;23615;51.506;7.678;2022-12-18T10:43:21;1.45;;;0.82;;
37777;SDS011;23615;51.506;7.678;2022-12-18T10:48:33;2.60;;;1.30;;
37777;SDS011;23615;51.506;7.678;2022-12-18T10:51:06;2.25;;;0.80;;
37777;SDS011;23615;51.506;7.678;2022-12-18T10:53:33;1.00;;;0.77;;
37777;SDS011;23615;51.506;7.678;2022-12-18T10:56:02;1.50;;;1.00;;
37777;SDS011;23615;51.506;7.678;2022-12-18T10:58:30;2.13;;;1.08;;
37777;SDS011;23615;51.506;7.678;2022-12-18T11:01:07;1.63;;;0.95;;
37777;SDS011;23615;51.506;7.678;2022-12-18T11:03:39;1.88;;;1.10;;
37777;SDS011;23615;51.506;7.678;2022-12-18T11:08:31;2.50;;;1.40;;
37777;SDS011;23615;51.506;7.678;2022-12-18T11:10:56;1.43;;;0.90;;
37777;SDS011;23615;51.506;7.678;2022-12-18T11:13:23;1.20;;;0.80;;
37777;SDS011;23615;51.506;7.678;2022-12-18T11:15:50;1.33;;;0.70;;
37777;SDS011;23615;51.506;7.678;2022-12-18T11:18:17;1.17;;;0.82;;
37777;SDS011;23615;51.506;7.678;2022-12-18T11:20:57;1.35;;;0.80;;
37777;SDS011;23615;51.506;7.678;2022-12-18T11:23:34;1.08;;;0.90;;
37777;SDS011;23615;51.506;7.678;2022-12-18T11:26:01;2.63;;;1.30;;
37777;SDS011;23615;51.506;7.678;2022-12-18T11:28:49;1.00;;;0.77;;
37777;SDS011;23615;51.506;7.678;2022-12-18T11:31:24;1.48;;;1.20;;
37777;SDS011;23615;51.506;7.678;2022-12-18T11:34:10;1.55;;;1.30;;
37777;SDS011;23615;51.506;7.678;2022-12-18T11:36:49;1.48;;;1.02;;
37777;SDS011;23615;51.506;7.678;2022-12-18T11:39:20;2.17;;;1.27;;
37777;SDS011;23615;51.506;7.678;2022-12-18T11:41:56;1.90;;;1.13;;
37777;SDS011;23615;51.506;7.678;2022-12-18T11:44:49;1.75;;;0.82;;
37777;SDS011;23615;51.506;7.678;2022-12-18T11:47:23;1.83;;;0.88;;
37777;SDS011;23615;51.506;7.678;2022-12-18T11:49:54;2.00;;;1.00;;
37777;SDS011;23615;51.506;7.678;2022-12-18T11:52:26;1.27;;;0.80;;
37777;SDS011;23615;51.506;7.678;2022-12-18T11:55:01;2.10;;;1.08;;
37777;SDS011;23615;51.506;7.678;2022-12-18T12:00:23;2.10;;;1.20;;
37777;SDS011;23615;51.506;7.678;2022-12-18T12:03:00;1.55;;;1.00;;
37777;SDS011;23615;51.506;7.678;2022-12-18T12:06:03;2.07;;;1.20;;
37777;SDS011;23615;51.506;7.678;2022-12-18T12:08:52;1.67;;;1.15;;
37777;SDS011;23615;51.506;7.678;2022-12-18T12:17:40;1.30;;;0.80;;
37777;SDS011;23615;51.506;7.678;2022-12-18T12:20:26;1.10;;;0.88;;
37777;SDS011;23615;51.506;7.678;2022-12-18T12:26:01;1.80;;;1.08;;
37777;SDS011;23615;51.506;7.678;2022-12-18T12:28:39;1.20;;;0.75;;
37777;SDS011;23615;51.506;7.678;2022-12-18T12:32:11;1.63;;;0.80;;
37777;SDS011;23615;51.506;7.678;2022-12-18T12:34:20;0.90;;;0.60;;
37777;SDS011;23615;51.506;7.678;2022-12-18T12:39:48;1.60;;;0.80;;
37777;SDS011;23615;51.506;7.678;2022-12-18T12:45:36;1.85;;;0.68;;
37777;SDS011;23615;51.506;7.678;2022-12-18T12:48:07;1.77;;;0.98;;
37777;SDS011;23615;51.506;7.678;2022-12-18T12:50:43;1.10;;;0.75;;
37777;SDS011;23615;51.506;7.678;2022-12-18T12:53:12;1.15;;;0.60;;
37777;SDS011;23615;51.506;7.678;2022-12-18T12:55:46;1.13;;;0.70;;
37777;SDS011;23615;51.506;7.678;2022-12-18T12:58:16;1.70;;;0.60;;
37777;SDS011;23615;51.506;7.678;2022-12-18T13:00:56;1.50;;;0.70;;
37777;SDS011;23615;51.506;7.678;2022-12-18T13:03:49;1.30;;;0.88;;
37777;SDS011;23615;51.506;7.678;2022-12-18T13:09:11;1.50;;;0.90;;
37777;SDS011;23615;51.506;7.678;2022-12-18T13:11:43;1.00;;;0.80;;
37777;SDS011;23615;51.506;7.678;2022-12-18T13:14:30;1.15;;;0.70;;
37777;SDS011;23615;51.506;7.678;2022-12-18T13:17:30;1.25;;;0.80;;
37777;SDS011;23615;51.506;7.678;2022-12-18T13:20:12;1.88;;;1.00;;
37777;SDS011;23615;51.506;7.678;2022-12-18T13:22:44;1.75;;;0.93;;
37777;SDS011;23615;51.506;7.678;2022-12-18T13:25:30;1.88;;;0.90;;
37777;SDS011;23615;51.506;7.678;2022-12-18T13:28:00;2.20;;;1.20;;
37777;SDS011;23615;51.506;7.678;2022-12-18T13:38:25;1.73;;;0.90;;
37777;SDS011;23615;51.506;7.678;2022-12-18T13:43:41;1.00;;;0.60;;
37777;SDS011;23615;51.506;7.678;2022-12-18T13:51:26;1.15;;;0.65;;
37777;SDS011;23615;51.506;7.678;2022-12-18T13:53:59;1.03;;;0.60;;
37777;SDS011;23615;51.506;7.678;2022-12-18T13:56:29;2.40;;;1.00;;
37777;SDS011;23615;51.506;7.678;2022-12-18T13:59:08;1.92;;;1.02;;
37777;SDS011;23615;51.506;7.678;2022-12-18T14:01:34;1.75;;;0.90;;
37777;SDS011;23615;51.506;7.678;2022-12-18T14:04:12;1.60;;;0.90;;
37777;SDS011;23615;51.506;7.678;2022-12-18T14:06:45;1.65;;;1.20;;
37777;SDS011;23615;51.506;7.678;2022-12-18T14:09:15;1.35;;;1.23;;
37777;SDS011;23615;51.506;7.678;2022-12-18T14:11:47;1.60;;;1.17;;
37777;SDS011;23615;51.506;7.678;2022-12-18T14:14:17;2.22;;;1.00;;
37777;SDS011;23615;51.506;7.678;2022-12-18T14:16:44;2.30;;;1.42;;
37777;SDS011;23615;51.506;7.678;2022-12-18T14:19:15;1.20;;;0.90;;
37777;SDS011;23615;51.506;7.678;2022-12-18T14:21:48;1.25;;;0.70;;
37777;SDS011;23615;51.506;7.678;2022-12-18T14:24:16;1.60;;;1.13;;
37777;SDS011;23615;51.506;7.678;2022-12-18T14:26:44;1.25;;;0.90;;
37777;SDS011;23615;51.506;7.678;2022-12-18T14:34:42;2.22;;;1.35;;
37777;SDS011;23615;51.506;7.678;2022-12-18T14:37:17;2.13;;;1.20;;
37777;SDS011;23615;51.506;7.678;2022-12-18T14:39:59;1.93;;;1.40;;
37777;SDS011;23615;51.506;7.678;2022-12-18T14:42:26;2.42;;;1.77;;
37777;SDS011;23615;51.506;7.678;2022-12-18T14:48:36;2.22;;;1.50;;
37777;SDS011;23615;51.506;7.678;2022-12-18T14:51:12;3.10;;;2.03;;
37777;SDS011;23615;51.506;7.678;2022-12-18T14:53:43;2.90;;;2.00;;
37777;SDS011;23615;51.506;7.678;2022-12-18T14:56:14;3.10;;;1.92;;
37777;SDS011;23615;51.506;7.678;2022-12-18T14:58:46;3.28;;;2.72;;
37777;SDS011;23615;51.506;7.678;2022-12-18T15:01:22;3.28;;;2.60;;
37777;SDS011;23615;51.506;7.678;2022-12-18T15:03:50;5.38;;;3.85;;
37777;SDS011;23615;51.506;7.678;2022-12-18T15:06:27;5.03;;;3.38;;
37777;SDS011;23615;51.506;7.678;2022-12-18T15:08:55;4.38;;;3.47;;
37777;SDS011;23615;51.506;7.678;2022-12-18T15:11:25;5.60;;;3.97;;
37777;SDS011;23615;51.506;7.678;2022-12-18T15:13:57;5.63;;;3.73;;
37777;SDS011;23615;51.506;7.678;2022-12-18T15:16:23;7.22;;;4.10;;
37777;SDS011;23615;51.506;7.678;2022-12-18T15:18:49;5.32;;;3.60;;
37777;SDS011;23615;51.506;7.678;2022-12-18T15:21:16;5.67;;;4.10;;
37777;SDS011;23615;51.506;7.678;2022-12-18T15:23:46;5.38;;;3.67;;
37777;SDS011;23615;51.506;7.678;2022-12-18T15:26:15;5.60;;;4.38;;
37777;SDS011;23615;51.506;7.678;2022-12-18T15:28:51;4.47;;;3.80;;
37777;SDS011;23615;51.506;7.678;2022-12-18T15:31:24;5.82;;;3.88;;
37777;SDS011;23615;51.506;7.678;2022-12-18T15:36:28;6.25;;;4.22;;
37777;SDS011;23615;51.506;7.678;2022-12-18T15:39:01;6.00;;;4.37;;
37777;SDS011;23615;51.506;7.678;2022-12-18T15:41:26;6.30;;;4.80;;
37777;SDS011;23615;51.506;7.678;2022-12-18T15:43:52;7.33;;;4.80;;
37777;SDS011;23615;51.506;7.678;2022-12-18T15:46:22;6.32;;;4.28;;
37777;SDS011;23615;51.506;7.678;2022-12-18T15:48:49;6.10;;;4.30;;
37777;SDS011;23615;51.506;7.678;2022-12-18T15:51:29;5.75;;;4.22;;
37777;SDS011;23615;51.506;7.678;2022-12-18T15:53:58;5.90;;;4.27;;
37777;SDS011;23615;51.506;7.678;2022-12-18T15:56:25;6.10;;;4.57;;
37777;SDS011;23615;51.506;7.678;2022-12-18T15:59:10;6.65;;;4.65;;
37777;SDS011;23615;51.506;7.678;2022-12-18T16:01:38;5.70;;;4.50;;
37777;SDS011;23615;51.506;7.678;2022-12-18T16:04:04;7.60;;;5.03;;
37777;SDS011;23615;51.506;7.678;2022-12-18T16:06:29;6.10;;;4.60;;
37777;SDS011;23615;51.506;7.678;2022-12-18T16:08:54;6.73;;;5.03;;
37777;SDS011;23615;51.506;7.678;2022-12-18T16:11:21;5.77;;;4.43;;
37777;SDS011;23615;51.506;7.678;2022-12-18T16:14:03;7.50;;;5.15;;
37777;SDS011;23615;51.506;7.678;2022-12-18T16:16:52;8.13;;;5.65;;
37777;SDS011;23615;51.506;7.678;2022-12-18T16:19:20;7.88;;;5.50;;
37777;SDS011;23615;51.506;7.678;2022-12-18T16:21:46;7.97;;;5.70;;
37777;SDS011;23615;51.506;7.678;2022-12-18T16:24:14;7.43;;;5.57;;
37777;SDS011;23615;51.506;7.678;2022-12-18T16:26:41;7.38;;;5.72;;
37777;SDS011;23615;51.506;7.678;2022-12-18T16:29:07;6.85;;;5.45;;
37777;SDS011;23615;51.506;7.678;2022-12-18T16:31:33;7.78;;;5.50;;
37777;SDS011;23615;51.506;7.678;2022-12-18T16:36:47;8.32;;;6.28;;
37777;SDS011;23615;51.506;7.678;2022-12-18T16:39:14;8.35;;;6.10;;